createdAt,value
2019-04-28T00:03:03.076Z,93.09
2019-04-28T00:06:08.200Z,92.55
2019-04-28T00:09:14.224Z,91.96
2019-04-28T00:12:22.947Z,92.71
2019-04-28T00:15:28.259Z,93.03
2019-04-28T00:18:33.500Z,92.78
2019-04-28T00:21:53.489Z,93.20
2019-04-28T00:25:07.269Z,92.24
2019-04-28T00:28:12.492Z,92.58
2019-04-28T00:31:17.698Z,92.44
2019-04-28T00:34:22.936Z,91.76
2019-04-28T00:37:33.329Z,91.94
2019-04-28T00:40:38.558Z,91.53
2019-04-28T00:43:43.882Z,92.65
2019-04-28T00:46:51.041Z,92.31
2019-04-28T00:49:55.992Z,93.16
2019-04-28T00:53:01.843Z,92.10
2019-04-28T00:56:07.009Z,92.59
2019-04-28T00:59:12.351Z,92.18
2019-04-28T01:02:36.477Z,92.50
2019-04-28T01:05:41.789Z,92.48
2019-04-28T01:08:47.013Z,92.60
2019-04-28T01:11:53.361Z,91.65
2019-04-28T01:15:00.237Z,91.55
2019-04-28T01:18:33.573Z,92.30
2019-04-28T01:21:56.555Z,92.34
2019-04-28T01:25:01.711Z,92.12
2019-04-28T01:28:09.757Z,91.63
2019-04-28T01:31:33.712Z,90.94
2019-04-28T01:34:40.016Z,91.14
2019-04-28T01:37:45.178Z,92.26
2019-04-28T01:40:50.295Z,92.09
2019-04-28T01:43:55.511Z,92.48
2019-04-28T01:47:01.186Z,92.31
2019-04-28T01:50:07.393Z,92.26
2019-04-28T01:53:12.548Z,92.41
2019-04-28T01:56:17.754Z,92.63
2019-04-28T01:59:22.920Z,93.10
2019-04-28T02:02:30.033Z,92.90
2019-04-28T02:05:35.222Z,92.32
2019-04-28T02:08:40.546Z,92.12
2019-04-28T02:11:45.679Z,92.14
2019-04-28T02:14:53.515Z,92.35
2019-04-28T02:18:00.127Z,92.63
2019-04-28T02:21:19.615Z,92.76
2019-04-28T02:24:35.211Z,93.02
2019-04-28T02:27:40.416Z,92.46
2019-04-28T02:30:50.349Z,91.79
2019-04-28T02:33:53.911Z,91.43
2019-04-28T02:37:01.579Z,92.00
2019-04-28T02:40:06.761Z,92.45
2019-04-28T02:43:11.866Z,91.29
2019-04-28T02:46:17.067Z,92.20
2019-04-28T02:49:30.508Z,92.09
2019-04-28T02:52:57.687Z,93.20
2019-04-28T02:56:02.925Z,93.24
2019-04-28T02:59:10.907Z,93.37
2019-04-28T03:02:14.937Z,92.65
2019-04-28T03:05:21.541Z,93.39
2019-04-28T03:08:30.483Z,92.99
2019-04-28T03:11:34.839Z,92.42
2019-04-28T03:14:43.404Z,91.64
2019-04-28T03:17:47.144Z,91.67
2019-04-28T03:20:52.334Z,91.66
2019-04-28T03:24:01.094Z,91.81
2019-04-28T03:27:14.125Z,91.26
2019-04-28T03:30:37.006Z,91.82
2019-04-28T03:33:48.605Z,91.81
2019-04-28T03:36:51.725Z,91.08
2019-04-28T03:39:56.122Z,91.16
2019-04-28T03:43:03.153Z,91.19
2019-04-28T03:46:13.771Z,91.39
2019-04-28T03:49:35.179Z,91.05
2019-04-28T03:52:41.483Z,92.50
2019-04-28T03:55:46.872Z,91.98
2019-04-28T03:58:52.107Z,92.19
2019-04-28T04:02:02.343Z,91.32
2019-04-28T04:05:04.378Z,91.20
2019-04-28T04:08:11.054Z,88.97
2019-04-28T04:11:34.931Z,90.89
2019-04-28T04:14:50.582Z,90.44
2019-04-28T04:18:03.701Z,91.36
2019-04-28T04:21:11.145Z,91.06
2019-04-28T04:24:15.895Z,91.27
2019-04-28T04:27:21.121Z,91.65
2019-04-28T04:30:26.382Z,90.57
2019-04-28T04:33:31.499Z,90.46
2019-04-28T04:36:37.164Z,90.71
2019-04-28T04:39:42.392Z,90.94
2019-04-28T04:42:50.152Z,89.89
2019-04-28T04:46:14.519Z,90.11
2019-04-28T04:49:21.531Z,90.14
2019-04-28T04:52:26.940Z,90.22
2019-04-28T04:55:33.214Z,89.98
2019-04-28T04:58:40.449Z,89.51
2019-04-28T05:02:07.145Z,90.21
2019-04-28T05:05:34.423Z,87.63
2019-04-28T05:08:40.026Z,86.57
2019-04-28T05:11:45.282Z,84.13
2019-04-28T05:14:50.479Z,85.50
2019-04-28T05:17:55.588Z,85.01
2019-04-28T05:21:00.712Z,82.45
2019-04-28T05:24:23.586Z,84.46
2019-04-28T05:27:30.065Z,84.52
2019-04-28T05:30:39.712Z,80.51
2019-04-28T05:33:42.600Z,79.06
2019-04-28T05:36:47.716Z,79.76
2019-04-28T05:39:52.874Z,75.83
2019-04-28T05:43:16.987Z,76.93
2019-04-28T05:46:22.165Z,76.53
2019-04-28T05:49:52.480Z,72.76
2019-04-28T05:53:21.689Z,75.12
2019-04-28T05:56:37.296Z,69.62
2019-04-28T05:59:46.546Z,68.72
2019-04-28T06:02:56.588Z,72.07
2019-04-28T06:05:59.964Z,70.47
2019-04-28T06:09:23.222Z,71.74
2019-04-28T06:12:30.259Z,72.10
2019-04-28T06:15:35.387Z,76.43
2019-04-28T06:18:42.181Z,76.93
2019-04-28T06:21:47.502Z,76.01
2019-04-28T06:24:52.707Z,77.61
2019-04-28T06:27:57.979Z,77.44
2019-04-28T06:31:03.134Z,78.53
2019-04-28T06:34:08.274Z,81.24
2019-04-28T06:37:13.384Z,78.79
2019-04-28T06:40:18.637Z,79.02
2019-04-28T06:43:23.794Z,78.78
2019-04-28T06:46:28.906Z,76.37
2019-04-28T06:49:34.274Z,75.95
2019-04-28T06:52:39.454Z,75.65
2019-04-28T06:55:44.724Z,75.22
2019-04-28T06:58:58.923Z,75.70
2019-04-28T07:01:57.799Z,74.05
2019-04-28T07:05:03.029Z,75.94
2019-04-28T07:08:08.297Z,75.85
2019-04-28T07:11:13.470Z,74.60
2019-04-28T07:14:18.683Z,73.53
2019-04-28T07:17:23.815Z,71.05
2019-04-28T07:20:41.098Z,72.88
2019-04-28T07:23:46.271Z,72.17
2019-04-28T07:26:51.537Z,72.89
2019-04-28T07:29:56.773Z,73.44
2019-04-28T07:33:01.949Z,72.32
2019-04-28T07:36:07.107Z,72.90
2019-04-28T07:39:12.370Z,68.44
2019-04-28T07:42:17.629Z,71.33
2019-04-28T07:45:22.899Z,65.98
2019-04-28T07:48:28.169Z,66.90
2019-04-28T07:51:47.542Z,66.73
2019-04-28T07:54:52.715Z,69.34
2019-04-28T07:57:57.900Z,65.49
2019-04-28T08:01:04.754Z,64.93
2019-04-28T08:04:10.048Z,66.70
2019-04-28T08:07:15.203Z,62.51
2019-04-28T08:10:20.399Z,65.89
2019-04-28T08:13:25.721Z,64.17
2019-04-28T08:16:30.999Z,62.53
2019-04-28T08:19:36.200Z,66.12
2019-04-28T08:22:41.634Z,61.28
2019-04-28T08:25:46.850Z,60.77
2019-04-28T08:28:52.030Z,63.88
2019-04-28T08:32:19.290Z,64.04
2019-04-28T08:35:27.703Z,65.09
2019-04-28T08:38:31.790Z,63.71
2019-04-28T08:41:37.054Z,61.08
2019-04-28T08:44:42.256Z,63.39
2019-04-28T08:47:47.386Z,62.20
2019-04-28T08:50:52.588Z,59.13
2019-04-28T08:53:57.759Z,59.27
2019-04-28T08:57:02.938Z,62.36
2019-04-28T09:00:10.317Z,60.11
2019-04-28T09:03:15.553Z,57.53
2019-04-28T09:06:20.704Z,55.48
2019-04-28T09:09:25.876Z,57.58
2019-04-28T09:12:31.144Z,58.21
2019-04-28T09:15:36.371Z,59.57
2019-04-28T09:18:41.654Z,55.75
2019-04-28T09:21:46.839Z,52.00
2019-04-28T09:24:52.025Z,53.64
2019-04-28T09:27:57.220Z,51.80
2019-04-28T09:31:02.674Z,53.37
2019-04-28T09:34:07.800Z,54.00
2019-04-28T09:37:12.956Z,56.29
2019-04-28T09:40:18.080Z,52.84
2019-04-28T09:43:27.325Z,56.90
2019-04-28T09:46:39.339Z,57.23
2019-04-28T09:49:44.504Z,55.72
2019-04-28T09:52:49.659Z,54.26
2019-04-28T09:55:54.868Z,54.75
2019-04-28T09:59:00.013Z,49.54
2019-04-28T10:02:05.179Z,47.05
2019-04-28T10:05:11.197Z,47.72
2019-04-28T10:08:16.576Z,50.04
2019-04-28T10:11:30.320Z,48.88
2019-04-28T10:14:28.872Z,50.73
2019-04-28T10:17:34.239Z,52.15
2019-04-28T10:20:39.518Z,53.56
2019-04-28T10:23:44.726Z,54.49
2019-04-28T10:26:49.787Z,53.40
2019-04-28T10:29:54.980Z,53.21
2019-04-28T10:33:01.455Z,48.64
2019-04-28T10:36:06.662Z,47.12
2019-04-28T10:39:24.972Z,48.93
2019-04-28T10:42:30.396Z,51.71
2019-04-28T10:45:45.575Z,52.51
2019-04-28T10:48:50.883Z,48.13
2019-04-28T10:51:59.538Z,47.72
2019-04-28T10:55:04.127Z,46.84
2019-04-28T10:58:09.300Z,49.12
2019-04-28T11:01:14.544Z,44.57
2019-04-28T11:04:37.357Z,50.19
2019-04-28T11:07:42.817Z,48.84
2019-04-28T11:10:47.977Z,46.84
2019-04-28T11:13:53.193Z,48.09
2019-04-28T11:16:58.354Z,46.81
2019-04-28T11:20:03.774Z,45.25
2019-04-28T11:23:08.949Z,43.92
2019-04-28T11:26:14.334Z,44.85
2019-04-28T11:29:19.610Z,45.07
2019-04-28T11:32:24.836Z,45.94
2019-04-28T11:35:31.142Z,46.69
2019-04-28T11:38:36.352Z,43.62
2019-04-28T11:41:41.630Z,43.94
2019-04-28T11:44:46.847Z,45.93
2019-04-28T11:47:52.129Z,43.15
2019-04-28T11:50:57.347Z,45.31
2019-04-28T11:54:02.524Z,39.52
2019-04-28T11:57:07.846Z,38.43
2019-04-28T12:00:23.867Z,36.41
2019-04-28T12:03:29.029Z,36.39
2019-04-28T12:06:34.312Z,36.84
2019-04-28T12:09:48.190Z,38.92
2019-04-28T12:13:24.763Z,37.75
2019-04-28T12:17:07.125Z,39.11
2019-04-28T12:20:16.784Z,38.72
2019-04-28T12:23:22.024Z,41.31
2019-04-28T12:26:27.227Z,39.98
2019-04-28T12:29:32.472Z,39.46
2019-04-28T12:32:37.687Z,39.32
2019-04-28T12:35:48.112Z,42.72
2019-04-28T12:38:49.694Z,45.32
2019-04-28T12:41:54.933Z,43.86
2019-04-28T12:45:00.115Z,44.00
2019-04-28T12:48:05.314Z,45.13
2019-04-28T12:51:11.937Z,45.64
2019-04-28T12:54:18.779Z,46.81
2019-04-28T12:57:24.092Z,46.71
2019-04-28T13:00:50.198Z,45.02
2019-04-28T13:04:19.334Z,45.73
2019-04-28T13:07:24.486Z,45.78
2019-04-28T13:10:29.760Z,43.47
2019-04-28T13:13:35.039Z,46.70
2019-04-28T13:16:40.230Z,45.00
2019-04-28T13:19:45.497Z,43.89
2019-04-28T13:22:51.761Z,43.71
2019-04-28T13:25:56.975Z,43.89
2019-04-28T13:29:02.100Z,42.60
2019-04-28T13:32:07.332Z,43.83
2019-04-28T13:35:12.571Z,43.63
2019-04-28T13:38:17.795Z,43.42
2019-04-28T13:41:23.031Z,41.20
2019-04-28T13:44:46.144Z,39.20
2019-04-28T13:47:51.322Z,40.60
2019-04-28T13:50:56.591Z,39.72
2019-04-28T13:54:04.026Z,40.57
2019-04-28T13:57:09.225Z,43.01
2019-04-28T14:00:17.516Z,42.65
2019-04-28T14:03:53.811Z,41.29
2019-04-28T14:07:01.153Z,40.77
2019-04-28T14:10:06.721Z,41.62
2019-04-28T14:13:11.974Z,42.05
2019-04-28T14:16:17.197Z,41.33
2019-04-28T14:19:22.297Z,41.09
2019-04-28T14:22:27.574Z,43.08
2019-04-28T14:25:32.880Z,43.26
2019-04-28T14:28:38.068Z,43.79
2019-04-28T14:31:43.354Z,42.02
2019-04-28T14:34:48.590Z,43.10
2019-04-28T14:37:53.803Z,43.58
2019-04-28T14:40:59.008Z,43.65
2019-04-28T14:44:04.315Z,43.25
2019-04-28T14:47:09.484Z,45.96
2019-04-28T14:50:14.655Z,44.45
2019-04-28T14:53:19.805Z,44.82
2019-04-28T14:56:25.011Z,45.68
2019-04-28T14:59:30.142Z,45.57
2019-04-28T15:02:47.557Z,45.66
2019-04-28T15:06:08.342Z,44.70
2019-04-28T15:09:35.390Z,41.74
2019-04-28T15:12:40.688Z,41.42
2019-04-28T15:15:45.919Z,42.44
2019-04-28T15:18:51.155Z,42.32
2019-04-28T15:21:56.528Z,41.30
2019-04-28T15:25:01.674Z,40.96
2019-04-28T15:28:07.053Z,42.89
2019-04-28T15:31:12.272Z,43.90
2019-04-28T15:34:17.487Z,43.80
2019-04-28T15:37:22.871Z,42.74
2019-04-28T15:40:28.024Z,41.70
2019-04-28T15:43:34.676Z,44.82
2019-04-28T15:46:41.307Z,42.90
2019-04-28T15:49:46.526Z,40.13
2019-04-28T15:52:51.784Z,41.88
2019-04-28T15:56:05.642Z,42.24
2019-04-28T15:59:11.302Z,42.40
2019-04-28T16:02:16.456Z,44.11
2019-04-28T16:05:21.670Z,43.08
2019-04-28T16:08:26.863Z,44.12
2019-04-28T16:11:32.398Z,43.39
2019-04-28T16:14:37.505Z,43.62
2019-04-28T16:17:42.910Z,44.26
2019-04-28T16:20:48.145Z,44.64
2019-04-28T16:23:53.417Z,45.12
2019-04-28T16:26:58.738Z,44.16
2019-04-28T16:30:04.304Z,46.24
2019-04-28T16:33:10.678Z,46.02
2019-04-28T16:36:15.807Z,44.62
2019-04-28T16:39:20.962Z,45.05
2019-04-28T16:42:40.566Z,44.93
2019-04-28T16:45:45.674Z,45.24
2019-04-28T16:48:50.909Z,44.80
2019-04-28T16:51:56.122Z,45.22
2019-04-28T16:55:15.675Z,45.11
2019-04-28T16:58:36.600Z,50.14
2019-04-28T17:01:55.881Z,52.32
2019-04-28T17:05:01.102Z,53.66
2019-04-28T17:08:06.742Z,53.61
2019-04-28T17:11:11.888Z,55.93
2019-04-28T17:14:17.099Z,55.71
2019-04-28T17:17:22.279Z,55.15
2019-04-28T17:20:27.470Z,55.46
2019-04-28T17:23:32.719Z,56.42
2019-04-28T17:26:37.900Z,55.11
2019-04-28T17:29:43.042Z,55.40
2019-04-28T17:32:48.189Z,57.05
2019-04-28T17:35:53.346Z,56.14
2019-04-28T17:38:58.628Z,55.58
2019-04-28T17:42:05.169Z,56.96
2019-04-28T17:45:10.666Z,57.92
2019-04-28T17:48:24.635Z,58.40
2019-04-28T17:51:30.009Z,61.95
2019-04-28T17:54:35.449Z,62.56
2019-04-28T17:57:40.875Z,61.28
2019-04-28T18:01:20.195Z,61.62
2019-04-28T18:04:37.297Z,62.06
2019-04-28T18:07:43.420Z,62.77
2019-04-28T18:10:48.633Z,64.34
2019-04-28T18:13:53.954Z,62.11
2019-04-28T18:17:16.988Z,65.04
2019-04-28T18:20:22.339Z,65.67
2019-04-28T18:23:27.647Z,66.77
2019-04-28T18:26:32.848Z,67.67
2019-04-28T18:29:38.201Z,68.46
2019-04-28T18:32:59.511Z,67.24
2019-04-28T18:36:11.613Z,69.68
2019-04-28T18:39:34.462Z,71.05
2019-04-28T18:42:46.498Z,72.72
2019-04-28T18:45:51.614Z,75.34
2019-04-28T18:48:57.037Z,76.74
2019-04-28T18:52:04.013Z,77.05
2019-04-28T18:55:09.202Z,77.71
2019-04-28T18:58:14.419Z,78.25
2019-04-28T19:01:29.095Z,76.92
2019-04-28T19:04:34.518Z,77.86
2019-04-28T19:08:06.873Z,80.39
2019-04-28T19:11:31.119Z,81.73
2019-04-28T19:14:40.535Z,82.39
2019-04-28T19:17:51.890Z,84.46
2019-04-28T19:20:57.116Z,84.70
2019-04-28T19:24:03.370Z,85.49
2019-04-28T19:27:08.643Z,85.83
2019-04-28T19:30:14.489Z,86.05
2019-04-28T19:33:19.929Z,85.92
2019-04-28T19:36:25.233Z,86.69
2019-04-28T19:39:31.613Z,87.48
2019-04-28T19:42:38.404Z,88.10
2019-04-28T19:45:47.091Z,89.03
2019-04-28T19:48:52.488Z,90.20
2019-04-28T19:51:57.930Z,89.76
2019-04-28T19:55:09.030Z,90.07
2019-04-28T19:58:45.587Z,89.16
2019-04-28T20:01:55.016Z,88.95
2019-04-28T20:05:00.312Z,90.09
2019-04-28T20:08:05.640Z,90.77
2019-04-28T20:11:10.811Z,91.31
2019-04-28T20:14:16.179Z,92.19
2019-04-28T20:17:21.335Z,92.36
2019-04-28T20:20:26.535Z,91.13
2019-04-28T20:23:31.916Z,90.83
2019-04-28T20:26:37.296Z,91.12
2019-04-28T20:29:42.689Z,91.37
2019-04-28T20:32:48.030Z,92.02
2019-04-28T20:35:57.732Z,92.46
2019-04-28T20:39:08.179Z,92.90
2019-04-28T20:42:33.862Z,93.31
2019-04-28T20:45:38.995Z,93.24
2019-04-28T20:48:44.147Z,93.16
2019-04-28T20:51:49.290Z,92.82
2019-04-28T20:54:54.427Z,92.57
2019-04-28T20:57:59.622Z,92.40
2019-04-28T21:01:05.225Z,92.67
2019-04-28T21:04:10.402Z,93.35
2019-04-28T21:07:15.634Z,94.48
2019-04-28T21:10:20.892Z,95.21
2019-04-28T21:13:26.119Z,95.37
2019-04-28T21:16:31.437Z,95.29
2019-04-28T21:19:36.597Z,95.87
2019-04-28T21:22:42.906Z,96.18
2019-04-28T21:25:48.130Z,95.84
2019-04-28T21:28:53.396Z,95.79
2019-04-28T21:31:58.596Z,95.74
2019-04-28T21:35:03.681Z,95.21
2019-04-28T21:38:08.867Z,95.04
2019-04-28T21:41:15.259Z,95.62
2019-04-28T21:44:27.148Z,96.00
2019-04-28T21:47:33.757Z,96.60
2019-04-28T21:50:38.915Z,97.06
2019-04-28T21:53:44.130Z,97.48
2019-04-28T21:56:49.406Z,98.12
2019-04-28T21:59:54.545Z,98.47
2019-04-28T22:02:59.741Z,98.25
2019-04-28T22:06:05.057Z,97.89
2019-04-28T22:09:10.393Z,97.66
2019-04-28T22:12:17.137Z,97.05
2019-04-28T22:15:22.253Z,96.54
2019-04-28T22:18:27.481Z,96.37
2019-04-28T22:21:32.721Z,96.99
2019-04-28T22:24:42.815Z,97.99
2019-04-28T22:27:47.935Z,98.52
2019-04-28T22:30:53.041Z,98.28
2019-04-28T22:33:58.222Z,97.84
2019-04-28T22:37:04.708Z,97.95
2019-04-28T22:40:09.925Z,98.08
2019-04-28T22:43:15.118Z,98.13
2019-04-28T22:46:20.318Z,98.97
2019-04-28T22:49:25.568Z,99.44
2019-04-28T22:52:30.720Z,99.50
2019-04-28T22:55:40.685Z,99.59
2019-04-28T22:58:50.847Z,99.47
2019-04-28T23:02:27.769Z,99.56
2019-04-28T23:05:33.002Z,99.08
2019-04-28T23:08:38.245Z,98.58
2019-04-28T23:11:43.385Z,98.57
2019-04-28T23:14:48.759Z,99.19
2019-04-28T23:17:53.905Z,99.92
2019-04-28T23:21:01.902Z,100.00
2019-04-28T23:24:07.087Z,100.00
2019-04-28T23:27:12.213Z,100.00
2019-04-28T23:30:35.746Z,100.00
2019-04-28T23:33:41.038Z,100.00
2019-04-28T23:36:46.212Z,99.90
2019-04-28T23:39:51.368Z,99.92
2019-04-28T23:43:01.722Z,99.71
2019-04-28T23:46:07.973Z,99.80
2019-04-28T23:49:13.213Z,100.00
2019-04-28T23:52:36.530Z,100.00
2019-04-28T23:55:41.818Z,100.00
2019-04-28T23:58:46.931Z,99.93
